• Join FlightAware (Why Join?)
  • Login
  • US Flag 
10:24PM EST


 

Airport Tracker/Info


-or-


 

Live Flight TrackerFlight Track Log ✈ N588AC ✈ 07-Jul-2013 ✈ KBCB - 5A1

Flight Track Log - Related Links

Times and Time Zones

All times are in EDT time to prevent confusion due to time zone crossing. See the N588AC flight status page for this flight to view local times or setup timezone preferences in your user account.

Time Position Orientation Groundspeed Altitude Reporting Facility
EDT Latitude Longitude Course Direction KTS MPH feet Rate Location/Type
08:36AM 37.3453 -80.4756 335° Northwest 223 257 6,400  Level Indianapolis Center
08:37AM 37.4111 -80.5147 335° Northwest 263 303 7,000 900 Climbing Indianapolis Center
08:38AM 37.4867 -80.5494 340° North 286 329 8,300 2,160 Climbing Indianapolis Center
08:39AM 37.5653 -80.5906 337° Northwest 264 304 11,500 2,400 Climbing Indianapolis Center
08:40AM 37.6253 -80.6289 333° Northwest 265 305 13,400 1,800 Climbing Washington Center
08:41AM 37.6958 -80.6606 340° North 266 306 15,200 1,800 Climbing Indianapolis Center
08:42AM 37.7636 -80.6956 338° Northwest 270 311 17,100 1,800 Climbing Indianapolis Center
08:43AM 37.8453 -80.7361 339° North 277 319 18,900 1,740 Climbing Indianapolis Center
08:44AM 37.9156 -80.7769 335° Northwest 278 320 20,700 1,860 Climbing Indianapolis Center
08:45AM 37.9861 -80.8133 338° Northwest 272 313 22,700 1,680 Climbing Indianapolis Center
08:46AM 38.0575 -80.8472 340° North 272 313 24,200 1,500 Climbing Indianapolis Center
08:47AM 38.1289 -80.8819 339° North 275 316 25,800 1,440 Climbing Indianapolis Center
08:48AM 38.2014 -80.9192 338° Northwest 281 323 27,200 1,020 Climbing Indianapolis Center
08:49AM 38.2764 -80.9569 338° Northwest 291 335 27,900 360 Climbing Indianapolis Center
08:50AM 38.3608 -81.0044 336° Northwest 325 374 28,000  Climbing Indianapolis Center
08:51AM 38.4558 -81.0550 337° Northwest 364 419 28,000  Level Indianapolis Center
08:52AM 38.5719 -81.1156 338° Northwest 377 434 28,000  Level Indianapolis Center
08:53AM 38.6725 -81.1664 338° Northwest 388 447 28,000  Level Indianapolis Center
08:54AM 38.7747 -81.2197 338° Northwest 399 459 28,000  Level Indianapolis Center
08:55AM 38.8767 -81.2731 338° Northwest 400 460 28,000  Level Indianapolis Center
08:56AM 38.9811 -81.3289 337° Northwest 405 466 28,000  Level Indianapolis Center
08:57AM 39.0836 -81.3833 338° Northwest 406 467 28,000  Level Indianapolis Center
08:58AM 39.1872 -81.4386 338° Northwest 406 467 28,000  Level Indianapolis Center
08:59AM 39.3119 -81.5047 338° Northwest 405 466 28,000  Level Indianapolis Center
09:00AM 39.4153 -81.5606 337° Northwest 404 465 28,000  Level Indianapolis Center
09:01AM 39.5206 -81.6150 338° Northwest 407 468 28,000 -600 Level Indianapolis Center
09:02AM 39.6281 -81.6733 337° Northwest 417 480 26,800 -1,440 Descending Indianapolis Center
09:03AM 39.7492 -81.7392 337° Northwest 433 498 25,100 -1,620 Descending Indianapolis Center
09:04AM 39.8567 -81.7972 337° Northwest 417 480 23,500 -1,620 Descending Indianapolis Center
09:05AM 39.9617 -81.8539 338° Northwest 407 468 21,900 -1,620 Descending Indianapolis Center
09:06AM 40.0647 -81.9117 337° Northwest 401 461 20,300 -1,620 Descending Indianapolis Center
09:07AM 40.1614 -81.9636 338° Northwest 375 432 18,700 -1,440 Descending Indianapolis Center
09:08AM 40.2458 -82.0097 337° Northwest 347 399 17,400 -1,440 Descending Indianapolis Center
09:10AM 40.3322 -82.0572 337° Northwest 335 386 15,800 -1,620 Descending Indianapolis Center
09:11AM 40.4161 -82.1044 337° Northwest 326 375 14,200 -1,620 Descending Indianapolis Center
09:12AM 40.5000 -82.1511 337° Northwest 323 372 12,600 -1,620 Descending Indianapolis Center
09:13AM 40.5828 -82.1958 338° Northwest 320 368 11,000 -1,740 Descending Indianapolis Center
09:14AM 40.6739 -82.2297 344° North 294 338 9,100 -1,860 Descending Indianapolis Center
09:15AM 40.7589 -82.2419 354° North 301 346 7,200 -1,920 Descending Indianapolis Center
09:16AM 40.8381 -82.2533 354° North 290 334 5,200 -1,980 Descending Indianapolis Center
09:17AM 40.9122 -82.2647 353° North 273 314 3,200 -1,080 Descending Indianapolis Center
09:18AM 40.9836 -82.2758 353° North 263 303 3,000 -120 Descending Indianapolis Center
09:19AM 41.0572 -82.2856 354° North 261 300 3,000  Level Indianapolis Center
09:20AM 41.1258 -82.2958 354° North 254 292 3,000  Level Indianapolis Center
09:21AM 41.1822 -82.3025 355° North 225 259 3,000 -60 Level Indianapolis Center
09:22AM 41.2350 -82.3036 359° North 202 232 2,900 -120 Descending Indianapolis Center